Time;durP1;ratioP1;P1;durP2;ratioP2;P2;SDS_P1;SDS_P2;PMS_P1;PMS_P2;Temp;Humidity;BMP_temperature;BMP_pressure;BME280_temperature;BME280_humidity;BME280_pressure;Samples;Min_cycle;Max_cycle;Signal;HPM_P1;HPM_P2
2022/03/16 00:00:27;;;;;;;4.25;3.35;;;21.70;63.70;;;;;;6168431;28;88041;-64
2022/03/16 00:03:29;;;;;;;3.28;2.97;;;21.70;63.80;;;;;;6182321;28;89060;-64
2022/03/16 00:06:31;;;;;;;5.05;3.10;;;21.70;63.70;;;;;;6184314;28;89041;-64
2022/03/16 00:09:35;;;;;;;5.90;3.25;;;21.70;63.50;;;;;;6181381;28;87979;-64
2022/03/16 00:12:37;;;;;;;4.72;3.20;;;21.70;63.50;;;;;;6182871;28;89022;-64
2022/03/16 00:15:40;;;;;;;4.20;3.35;;;21.70;63.60;;;;;;6182812;28;89162;-64
2022/03/16 00:18:41;;;;;;;4.13;3.30;;;21.70;63.70;;;;;;6181919;28;88209;-64
2022/03/16 00:21:43;;;;;;;4.40;3.70;;;21.60;63.80;;;;;;6182295;28;88118;-64
2022/03/16 00:24:47;;;;;;;3.90;3.50;;;21.60;63.70;;;;;;6181404;28;89068;-64
2022/03/16 00:27:49;;;;;;;4.97;3.50;;;21.70;64.80;;;;;;6182074;28;90019;-63
2022/03/16 00:30:51;;;;;;;4.97;4.03;;;21.60;63.80;;;;;;6182955;28;89054;-64
2022/03/16 00:33:53;;;;;;;4.78;3.67;;;21.60;63.80;;;;;;6181421;28;88972;-64
2022/03/16 00:36:55;;;;;;;4.95;3.88;;;21.60;64.00;;;;;;6183301;28;89048;-64
2022/03/16 00:39:58;;;;;;;4.95;4.13;;;21.60;63.90;;;;;;6182675;28;89005;-63
2022/03/16 00:43:00;;;;;;;5.95;4.20;;;21.60;64.00;;;;;;6182118;28;89383;-63
2022/03/16 00:46:02;;;;;;;6.28;4.18;;;21.60;64.00;;;;;;6181685;28;89166;-64
2022/03/16 00:49:05;;;;;;;4.95;3.95;;;21.50;64.00;;;;;;6181432;28;88251;-63
2022/03/16 00:52:07;;;;;;;5.15;4.30;;;21.50;64.00;;;;;;6182895;28;89167;-64
2022/03/16 00:55:11;;;;;;;4.60;4.20;;;21.50;64.10;;;;;;6174978;28;89007;-63
2022/03/16 00:58:13;;;;;;;5.20;4.45;;;21.50;64.00;;;;;;6182565;28;89968;-63
2022/03/16 01:01:15;;;;;;;5.68;4.60;;;21.50;64.20;;;;;;6184805;28;89032;-63
2022/03/16 01:04:17;;;;;;;5.95;5.00;;;21.50;64.10;;;;;;6185357;28;87979;-64
2022/03/16 01:07:19;;;;;;;6.30;4.78;;;21.50;64.20;;;;;;6186532;28;89242;-64
2022/03/16 01:10:23;;;;;;;5.07;4.40;;;21.50;64.20;;;;;;6185354;28;89015;-63
2022/03/16 01:13:25;;;;;;;6.45;4.72;;;21.50;64.20;;;;;;6186718;28;89150;-63
2022/03/16 01:16:27;;;;;;;5.13;4.60;;;21.50;64.20;;;;;;6186837;28;88037;-63
2022/03/16 01:19:29;;;;;;;5.55;4.70;;;21.40;64.10;;;;;;6185511;28;88330;-63
2022/03/16 01:22:31;;;;;;;5.45;4.60;;;21.50;64.20;;;;;;6185994;28;89293;-63
2022/03/16 01:25:35;;;;;;;5.40;4.90;;;21.50;64.20;;;;;;6184743;28;88052;-64
2022/03/16 01:28:37;;;;;;;5.18;4.68;;;21.50;64.20;;;;;;6185094;28;90076;-63
2022/03/16 01:31:40;;;;;;;5.85;5.25;;;21.50;64.20;;;;;;6184296;28;89108;-64
2022/03/16 01:34:42;;;;;;;6.68;5.43;;;21.50;64.20;;;;;;6186504;28;88059;-63
2022/03/16 01:37:45;;;;;;;6.47;5.10;;;21.50;64.20;;;;;;6184559;28;89079;-63
2022/03/16 01:40:48;;;;;;;7.95;5.32;;;21.50;64.20;;;;;;6186411;28;89138;-64
2022/03/16 01:43:54;;;;;;;5.30;4.80;;;21.40;64.20;;;;;;6184727;28;89431;-64
2022/03/16 01:46:56;;;;;;;5.53;4.90;;;21.40;64.20;;;;;;6185436;28;88004;-64
2022/03/16 01:49:58;;;;;;;6.18;4.78;;;21.40;64.30;;;;;;6184928;28;88771;-63
2022/03/16 01:53:00;;;;;;;6.07;5.00;;;21.40;64.30;;;;;;6185049;28;89453;-64
2022/03/16 01:56:04;;;;;;;5.25;4.75;;;21.40;65.20;;;;;;6176998;28;89186;-63
2022/03/16 01:59:06;;;;;;;7.35;5.22;;;21.40;64.40;;;;;;6185806;28;90011;-64
2022/03/16 02:02:08;;;;;;;6.47;5.07;;;21.40;64.40;;;;;;6185705;28;89075;-64
2022/03/16 02:05:11;;;;;;;6.32;5.30;;;21.40;64.40;;;;;;6185051;28;89547;-64
2022/03/16 02:08:13;;;;;;;6.28;5.00;;;21.40;64.40;;;;;;6183903;28;89051;-64
2022/03/16 02:11:16;;;;;;;5.57;4.60;;;21.40;64.40;;;;;;6183119;28;87047;-63
2022/03/16 02:14:18;;;;;;;5.65;5.00;;;21.40;64.50;;;;;;6184188;28;89226;-63
2022/03/16 02:17:23;;;;;;;5.40;4.90;;;21.30;64.40;;;;;;6184090;28;89105;-63
2022/03/16 02:20:27;;;;;;;5.80;4.93;;;21.30;64.40;;;;;;6184758;28;88335;-64
2022/03/16 02:23:31;;;;;;;5.72;4.90;;;21.30;64.40;;;;;;6184933;28;89305;-64
2022/03/16 02:26:34;;;;;;;5.55;5.05;;;21.30;64.40;;;;;;6183822;28;89081;-64
2022/03/16 02:29:36;;;;;;;5.15;4.57;;;21.30;64.40;;;;;;6183839;28;90043;-63
2022/03/16 02:32:38;;;;;;;6.10;4.70;;;21.40;64.40;;;;;;6183415;28;89198;-64
2022/03/16 02:35:40;;;;;;;5.28;4.55;;;21.30;64.30;;;;;;6184601;28;89498;-63
2022/03/16 02:38:43;;;;;;;5.18;4.68;;;21.40;64.40;;;;;;6184673;28;89082;-63
2022/03/16 02:41:47;;;;;;;5.15;4.22;;;21.40;64.40;;;;;;6180845;28;89011;-63
2022/03/16 02:44:50;;;;;;;5.28;4.70;;;21.30;64.30;;;;;;6184224;28;89084;-63
2022/03/16 02:47:52;;;;;;;5.70;4.47;;;21.30;64.40;;;;;;6181798;28;88002;-64
2022/03/16 02:50:54;;;;;;;5.80;4.40;;;21.30;64.40;;;;;;6167628;28;87304;-64
2022/03/16 02:53:57;;;;;;;5.63;4.45;;;21.30;64.40;;;;;;6165121;28;89284;-63
2022/03/16 02:57:00;;;;;;;5.18;4.68;;;21.30;64.50;;;;;;6183669;28;89073;-64
2022/03/16 03:00:02;;;;;;;4.85;4.30;;;21.30;64.50;;;;;;6181755;28;90142;-64
2022/03/16 03:03:04;;;;;;;4.82;4.32;;;21.30;64.60;;;;;;6181885;28;89242;-64
2022/03/16 03:06:06;;;;;;;4.90;4.40;;;21.20;64.40;;;;;;6182842;28;89561;-64
2022/03/16 03:09:09;;;;;;;5.18;4.68;;;21.30;64.60;;;;;;6182786;28;89136;-63
2022/03/16 03:12:12;;;;;;;5.88;4.80;;;21.20;64.50;;;;;;6183643;28;89420;-64
2022/03/16 03:15:15;;;;;;;5.55;4.20;;;21.20;64.60;;;;;;6182498;28;89158;-64
2022/03/16 03:18:17;;;;;;;4.72;4.15;;;21.20;64.60;;;;;;6181468;28;89280;-64
2022/03/16 03:21:19;;;;;;;4.50;4.10;;;21.20;64.60;;;;;;6184762;28;88374;-63
2022/03/16 03:24:22;;;;;;;4.38;3.97;;;21.20;64.60;;;;;;6180541;28;88980;-64
2022/03/16 03:27:42;;;;;;;4.22;3.83;;;21.20;64.60;;;;;;6183702;28;89109;-64
2022/03/16 03:30:44;;;;;;;4.40;3.95;;;21.20;64.60;;;;;;6158638;28;90262;-64
2022/03/16 03:33:46;;;;;;;5.00;3.90;;;21.20;64.60;;;;;;6175064;28;89009;-64
2022/03/16 03:36:49;;;;;;;4.93;3.95;;;21.20;64.60;;;;;;6182330;28;89116;-64
2022/03/16 03:39:52;;;;;;;4.45;4.05;;;21.20;64.50;;;;;;6184622;28;89189;-64
2022/03/16 03:42:54;;;;;;;3.97;3.58;;;21.20;64.50;;;;;;6181988;28;89064;-64
2022/03/16 03:45:57;;;;;;;4.30;3.90;;;21.20;64.60;;;;;;6181711;28;89098;-64
2022/03/16 03:48:59;;;;;;;4.15;3.75;;;21.20;64.60;;;;;;6182647;28;89324;-64
2022/03/16 03:52:01;;;;;;;3.88;3.58;;;21.20;64.50;;;;;;6183907;28;88327;-64
2022/03/16 03:55:05;;;;;;;3.92;3.53;;;21.20;64.60;;;;;;6170131;28;88436;-64
2022/03/16 03:58:07;;;;;;;4.10;3.70;;;21.20;64.60;;;;;;6163981;28;89419;-64
2022/03/16 04:01:09;;;;;;;4.43;3.78;;;21.20;64.60;;;;;;6183305;28;90112;-64
2022/03/16 04:04:11;;;;;;;3.67;3.30;;;21.20;64.60;;;;;;6183252;28;89055;-64
2022/03/16 04:07:13;;;;;;;3.70;3.40;;;21.10;64.60;;;;;;6183185;28;89096;-64
2022/03/16 04:10:17;;;;;;;4.75;3.58;;;21.20;64.70;;;;;;6182807;28;89099;-64
2022/03/16 04:13:19;;;;;;;4.10;3.70;;;21.10;64.60;;;;;;6181924;28;89113;-64
2022/03/16 04:16:21;;;;;;;3.80;3.50;;;21.10;64.70;;;;;;6181174;28;89157;-64
2022/03/16 04:19:23;;;;;;;3.40;3.10;;;21.10;64.70;;;;;;6182251;28;88930;-64
2022/03/16 04:22:27;;;;;;;3.20;2.90;;;21.10;64.60;;;;;;6182181;28;88763;-64
2022/03/16 04:25:30;;;;;;;3.75;3.00;;;21.10;64.40;;;;;;6182875;28;89082;-64
2022/03/16 04:28:32;;;;;;;3.75;3.38;;;21.10;64.40;;;;;;6183815;28;89463;-64
2022/03/16 04:31:35;;;;;;;3.28;2.90;;;21.10;64.30;;;;;;6180479;28;90709;-64
2022/03/16 04:34:37;;;;;;;3.45;3.05;;;21.20;64.30;;;;;;6183944;28;89491;-63
2022/03/16 04:37:39;;;;;;;3.20;2.90;;;21.20;64.20;;;;;;6181965;28;87957;-64
2022/03/16 04:40:42;;;;;;;2.90;2.70;;;21.20;64.30;;;;;;6181512;28;89041;-63
2022/03/16 04:43:44;;;;;;;3.45;3.10;;;21.20;64.20;;;;;;6183949;28;89098;-64
2022/03/16 04:46:46;;;;;;;3.20;2.90;;;21.20;64.10;;;;;;6181189;28;89288;-63
2022/03/16 04:49:48;;;;;;;2.90;2.60;;;21.20;64.10;;;;;;6181969;28;87989;-64
2022/03/16 04:52:50;;;;;;;3.10;2.80;;;21.30;64.10;;;;;;6182438;28;88580;-63
2022/03/16 04:59:13;;;;;;;3.15;2.85;;;21.30;63.90;;;;;;6159420;28;87188;-64
2022/03/16 05:02:15;;;;;;;2.95;2.60;;;21.30;63.90;;;;;;6179441;28;90026;-63
2022/03/16 05:05:17;;;;;;;2.85;2.60;;;21.30;63.90;;;;;;6182664;28;89075;-64
2022/03/16 05:08:19;;;;;;;3.00;2.70;;;21.40;64.00;;;;;;6182528;28;89041;-64
2022/03/16 05:11:23;;;;;;;2.83;2.53;;;21.40;63.90;;;;;;6180719;28;89152;-64
2022/03/16 05:14:25;;;;;;;2.55;2.35;;;21.40;63.90;;;;;;6181429;28;89081;-64
2022/03/16 05:17:27;;;;;;;3.53;2.35;;;21.50;63.80;;;;;;6180162;28;89299;-64
2022/03/16 05:20:29;;;;;;;2.95;2.50;;;21.50;63.80;;;;;;6182005;28;89181;-64
2022/03/16 05:23:31;;;;;;;2.42;2.22;;;21.50;63.70;;;;;;6180814;28;88315;-64
2022/03/16 05:26:35;;;;;;;2.80;2.50;;;21.50;63.70;;;;;;6181466;28;89078;-64
2022/03/16 05:29:37;;;;;;;2.63;2.42;;;21.60;63.70;;;;;;6181640;28;88927;-64
2022/03/16 05:32:41;;;;;;;2.75;2.45;;;21.60;63.60;;;;;;6179922;28;90039;-64
2022/03/16 05:35:43;;;;;;;2.40;2.20;;;21.60;63.50;;;;;;6182757;28;89081;-64
2022/03/16 05:38:45;;;;;;;2.40;2.20;;;21.60;63.50;;;;;;6181794;28;89144;-64
2022/03/16 05:41:48;;;;;;;2.72;2.08;;;21.70;63.50;;;;;;6180054;28;89067;-63
2022/03/16 05:44:54;;;;;;;2.40;2.20;;;21.70;63.40;;;;;;6184387;28;89396;-63
2022/03/16 05:47:56;;;;;;;2.45;2.25;;;21.70;63.50;;;;;;6185629;28;88946;-63
2022/03/16 05:50:58;;;;;;;2.65;2.40;;;21.70;63.40;;;;;;6184010;28;88975;-63
2022/03/16 05:57:21;;;;;;;3.05;2.75;;;21.80;63.40;;;;;;6163139;28;87349;-63
2022/03/16 06:04:20;;;;;;;3.22;2.50;;;21.80;63.10;;;;;;6179214;28;88751;-64
2022/03/16 06:07:22;;;;;;;5.18;4.68;;;21.80;64.90;;;;;;6185557;28;87940;-64
2022/03/16 06:10:24;;;;;;;3.20;2.90;;;21.80;66.30;;;;;;6184489;28;89584;-64
2022/03/16 06:13:28;;;;;;;2.70;2.50;;;21.90;64.30;;;;;;6182205;28;89172;-65
2022/03/16 06:16:30;;;;;;;2.88;2.53;;;21.90;63.90;;;;;;6182218;28;89195;-65
2022/03/16 06:19:32;;;;;;;3.00;2.70;;;22.00;63.80;;;;;;6183435;28;88290;-64
2022/03/16 06:22:34;;;;;;;3.30;2.38;;;22.00;63.90;;;;;;6181540;28;89172;-65
2022/03/16 06:25:36;;;;;;;2.75;2.45;;;22.10;64.00;;;;;;6181962;28;88357;-64
2022/03/16 06:28:40;;;;;;;2.40;2.20;;;22.00;63.90;;;;;;6183636;28;88038;-63
2022/03/16 06:31:42;;;;;;;4.22;2.35;;;22.10;64.00;;;;;;6184932;28;89104;-65
2022/03/16 06:34:46;;;;;;;4.03;2.55;;;22.10;64.10;;;;;;6182859;28;90030;-65
2022/03/16 06:37:48;;;;;;;2.67;2.47;;;22.10;63.80;;;;;;6180131;28;89303;-65
2022/03/16 06:40:50;;;;;;;2.75;2.50;;;22.10;63.70;;;;;;6184662;28;89357;-65
2022/03/16 06:43:54;;;;;;;2.72;2.30;;;22.10;63.70;;;;;;6183581;28;89114;-65
2022/03/16 06:46:56;;;;;;;2.97;2.30;;;22.10;63.70;;;;;;6185049;28;89095;-64
2022/03/16 06:49:58;;;;;;;2.22;2.03;;;22.10;63.70;;;;;;6183083;28;89297;-65
2022/03/16 06:53:03;;;;;;;3.17;2.58;;;22.10;63.70;;;;;;6184696;28;89086;-64
2022/03/16 06:56:06;;;;;;;3.90;2.45;;;22.10;63.70;;;;;;6175458;28;87631;-65
2022/03/16 06:59:10;;;;;;;2.60;2.40;;;22.10;63.70;;;;;;6183136;28;89329;-65
2022/03/16 07:02:12;;;;;;;3.67;2.75;;;22.20;63.80;;;;;;6178895;28;89124;-65
2022/03/16 07:05:14;;;;;;;3.67;2.50;;;22.20;63.90;;;;;;6178852;28;90057;-63
2022/03/16 07:08:16;;;;;;;2.85;2.47;;;22.20;63.90;;;;;;6177205;28;87156;-63
2022/03/16 07:11:18;;;;;;;5.20;2.75;;;22.20;63.80;;;;;;6179920;28;88950;-63
2022/03/16 07:14:34;;;;;;;4.63;2.60;;;22.20;63.80;;;;;;6178526;28;89034;-63
2022/03/16 07:17:36;;;;;;;3.72;2.50;;;22.20;63.80;;;;;;6178816;28;89452;-62
2022/03/16 07:20:38;;;;;;;4.30;3.10;;;22.20;63.80;;;;;;6178524;28;89124;-63
2022/03/16 07:23:41;;;;;;;5.25;2.85;;;22.30;63.90;;;;;;6180886;28;89416;-63
2022/03/16 07:26:43;;;;;;;4.88;3.00;;;22.20;64.00;;;;;;6181078;28;88524;-63
2022/03/16 07:29:47;;;;;;;5.30;3.13;;;22.30;64.20;;;;;;6179973;28;89026;-62
2022/03/16 07:32:49;;;;;;;5.45;3.20;;;22.30;64.30;;;;;;6179998;28;89232;-63
2022/03/16 07:35:51;;;;;;;4.45;3.08;;;22.40;64.40;;;;;;6178752;28;90184;-62
2022/03/16 07:38:53;;;;;;;6.07;3.00;;;22.30;64.40;;;;;;6180026;28;87979;-63
2022/03/16 07:41:55;;;;;;;4.30;3.10;;;22.40;64.50;;;;;;6177888;28;89461;-62
2022/03/16 07:44:59;;;;;;;5.18;3.10;;;22.40;64.50;;;;;;6180240;28;89076;-62
2022/03/16 07:48:01;;;;;;;4.68;2.72;;;22.40;64.50;;;;;;6180087;28;89257;-62
2022/03/16 07:51:03;;;;;;;4.80;3.10;;;22.40;64.40;;;;;;6177484;28;88945;-62
2022/03/16 07:54:06;;;;;;;4.10;3.05;;;22.40;64.50;;;;;;6174144;28;88976;-62
2022/03/16 07:57:09;;;;;;;3.92;2.75;;;22.40;64.40;;;;;;6179273;28;87335;-62
2022/03/16 08:00:15;;;;;;;4.70;2.80;;;22.40;64.40;;;;;;6179466;28;87942;-62
2022/03/16 08:03:16;;;;;;;6.43;2.78;;;22.40;64.40;;;;;;6179753;28;89019;-63
2022/03/16 08:06:18;;;;;;;3.88;2.45;;;22.40;64.40;;;;;;6177563;28;90000;-63
2022/03/16 08:09:20;;;;;;;4.82;2.75;;;22.50;64.40;;;;;;6177730;28;89392;-62
2022/03/16 08:12:23;;;;;;;4.28;2.70;;;22.50;64.40;;;;;;6180396;28;88908;-63
2022/03/16 08:15:26;;;;;;;4.43;2.78;;;22.50;64.40;;;;;;6180115;28;88926;-62
2022/03/16 08:18:29;;;;;;;3.72;2.72;;;22.40;64.30;;;;;;6178073;28;87962;-63
2022/03/16 08:21:31;;;;;;;4.25;2.60;;;22.50;64.40;;;;;;6180080;28;89125;-63
2022/03/16 08:24:33;;;;;;;3.95;2.75;;;22.50;64.30;;;;;;6177524;28;88946;-63
2022/03/16 08:27:36;;;;;;;4.10;2.60;;;22.50;64.30;;;;;;6179014;28;88369;-62
2022/03/16 08:30:40;;;;;;;3.47;2.33;;;22.50;64.20;;;;;;6178248;28;89126;-62
2022/03/16 08:33:42;;;;;;;3.55;2.72;;;22.50;64.20;;;;;;6174098;28;89454;-62
2022/03/16 08:36:44;;;;;;;3.45;2.47;;;22.50;64.20;;;;;;6178223;28;90194;-62
2022/03/16 08:39:46;;;;;;;4.57;2.78;;;22.50;64.20;;;;;;6178516;28;89002;-63
2022/03/16 08:42:49;;;;;;;4.07;2.47;;;22.50;64.20;;;;;;6178964;28;89091;-62
2022/03/16 08:45:53;;;;;;;3.47;2.30;;;22.50;64.20;;;;;;6177362;28;89359;-62
2022/03/16 08:48:55;;;;;;;3.63;2.50;;;22.60;64.20;;;;;;6178846;28;89266;-62
2022/03/16 08:51:57;;;;;;;3.28;2.50;;;22.50;64.10;;;;;;6179062;28;89318;-63
2022/03/16 08:55:00;;;;;;;3.08;2.33;;;22.60;64.20;;;;;;6164282;28;89120;-63
2022/03/16 08:58:02;;;;;;;2.50;2.05;;;22.50;64.10;;;;;;6153573;28;88379;-63
2022/03/16 09:01:06;;;;;;;3.15;2.30;;;22.60;64.10;;;;;;6155040;28;89105;-63
2022/03/16 09:04:09;;;;;;;3.40;2.28;;;22.60;64.20;;;;;;6158407;28;89148;-63
2022/03/16 09:07:11;;;;;;;2.55;2.08;;;22.60;64.10;;;;;;6155033;28;89976;-63
2022/03/16 09:10:13;;;;;;;2.72;2.20;;;22.60;64.20;;;;;;6154759;28;89067;-63
2022/03/16 09:13:16;;;;;;;3.03;2.10;;;22.60;64.20;;;;;;6154172;28;89153;-63
2022/03/16 09:16:19;;;;;;;3.03;2.08;;;22.60;64.20;;;;;;6177243;28;89025;-62
2022/03/16 09:19:21;;;;;;;2.72;1.95;;;22.60;64.10;;;;;;6180350;28;89074;-63
2022/03/16 09:22:24;;;;;;;4.13;2.10;;;22.60;64.10;;;;;;6184200;28;89367;-63
2022/03/16 09:25:26;;;;;;;3.25;2.40;;;22.60;64.10;;;;;;6185726;28;89223;-63
2022/03/16 09:28:28;;;;;;;3.13;2.40;;;22.60;64.10;;;;;;6185328;28;88404;-63
2022/03/16 09:31:33;;;;;;;2.35;2.00;;;22.70;64.20;;;;;;6182037;28;89282;-63
2022/03/16 09:34:35;;;;;;;3.13;2.17;;;22.70;64.20;;;;;;6183866;28;89581;-63
2022/03/16 09:37:37;;;;;;;2.72;2.22;;;22.70;64.10;;;;;;6180981;28;88849;-63
2022/03/16 09:40:40;;;;;;;2.80;2.10;;;22.70;64.20;;;;;;6183795;28;88865;-63
2022/03/16 09:43:44;;;;;;;2.78;2.20;;;22.60;64.00;;;;;;6183946;28;89256;-63
2022/03/16 09:46:52;;;;;;;2.47;2.10;;;22.70;64.00;;;;;;6182903;28;88014;-63
2022/03/16 09:49:55;;;;;;;2.92;2.17;;;22.70;64.00;;;;;;6180372;28;89295;-63
2022/03/16 09:52:57;;;;;;;3.05;2.20;;;22.70;65.20;;;;;;6179830;28;89583;-63
2022/03/16 09:55:59;;;;;;;2.55;1.95;;;22.70;65.60;;;;;;6179712;28;89083;-65
2022/03/16 09:59:02;;;;;;;2.28;1.90;;;22.70;65.10;;;;;;6186050;28;88400;-62
2022/03/16 10:02:09;;;;;;;3.72;1.77;;;22.70;65.00;;;;;;6180281;28;87892;-62
2022/03/16 10:05:12;;;;;;;2.78;1.92;;;22.60;64.00;;;;;;6180220;28;89123;-62
2022/03/16 10:08:14;;;;;;;2.58;2.10;;;22.70;63.70;;;;;;6181110;28;88969;-62
2022/03/16 10:14:47;;;;;;;2.95;2.05;;;22.60;63.50;;;;;;6155114;28;88562;-62
2022/03/16 10:17:59;;;;;;;2.38;1.88;;;22.60;63.40;;;;;;6180489;28;89266;-62
2022/03/16 10:21:02;;;;;;;2.38;1.80;;;22.70;63.40;;;;;;6181755;28;89040;-62
2022/03/16 10:24:05;;;;;;;2.25;1.80;;;22.70;63.30;;;;;;6180669;28;89221;-62
2022/03/16 10:27:07;;;;;;;2.10;1.90;;;22.70;63.30;;;;;;6180043;28;89169;-61
2022/03/16 10:30:09;;;;;;;2.65;2.00;;;22.70;63.30;;;;;;6179921;28;88379;-62
2022/03/16 10:33:15;;;;;;;2.00;1.80;;;22.70;63.30;;;;;;6181981;28;89092;-62
2022/03/16 10:36:20;;;;;;;2.78;1.83;;;22.60;63.30;;;;;;6181870;28;87880;-62
2022/03/16 10:39:33;;;;;;;2.10;1.90;;;22.60;63.30;;;;;;6179274;28;89916;-62
2022/03/16 10:49:34;;;;;;;1.98;1.83;;;22.60;63.40;;;;;;6104068;28;87625;-62
2022/03/16 10:52:37;;;;;;;2.22;2.03;;;22.60;63.40;;;;;;6105306;28;89148;-62
2022/03/16 10:55:40;;;;;;;3.47;2.10;;;22.60;63.50;;;;;;6156669;28;89074;-62
2022/03/16 10:58:42;;;;;;;2.42;1.70;;;22.60;63.50;;;;;;6168604;28;89131;-62
2022/03/16 11:01:48;;;;;;;1.90;1.80;;;22.60;63.50;;;;;;6180482;28;88659;-62
2022/03/16 11:04:51;;;;;;;2.20;2.00;;;22.60;63.50;;;;;;6178981;28;88125;-62
2022/03/16 11:07:53;;;;;;;2.05;1.85;;;22.60;63.50;;;;;;6181400;28;89553;-62
2022/03/16 11:10:55;;;;;;;2.10;1.90;;;22.60;63.50;;;;;;6179656;28;90027;-61
2022/03/16 11:13:57;;;;;;;2.45;1.80;;;22.60;63.50;;;;;;6178908;28;89449;-62
2022/03/16 11:16:59;;;;;;;2.20;1.80;;;22.60;64.50;;;;;;6179863;28;89181;-63
2022/03/16 11:20:05;;;;;;;1.90;1.80;;;22.50;63.50;;;;;;6179088;28;88990;-63
2022/03/16 11:26:49;;;;;;;2.85;1.80;;;22.50;63.70;;;;;;6179904;28;88215;-64
2022/03/16 11:30:02;;;;;;;2.20;2.00;;;22.50;63.70;;;;;;6178867;28;89152;-63
2022/03/16 11:33:08;;;;;;;2.05;1.85;;;22.60;63.80;;;;;;6180747;28;88798;-64
2022/03/16 11:36:11;;;;;;;2.33;1.90;;;22.60;63.80;;;;;;6178612;28;88948;-63
2022/03/16 11:39:40;;;;;;;2.03;1.90;;;22.60;63.90;;;;;;6178753;28;89497;-63
2022/03/16 11:43:04;;;;;;;2.53;2.00;;;22.60;64.00;;;;;;6178209;28;89201;-63
2022/03/16 11:46:31;;;;;;;1.85;1.75;;;22.60;64.00;;;;;;6179847;28;89376;-63
2022/03/16 11:49:33;;;;;;;2.20;2.00;;;22.60;64.00;;;;;;6178046;28;88913;-63
2022/03/16 11:52:59;;;;;;;2.30;2.10;;;22.60;64.00;;;;;;6177857;28;87971;-63
2022/03/16 11:56:20;;;;;;;2.22;2.03;;;22.60;64.00;;;;;;6158174;28;88916;-63
2022/03/16 11:59:44;;;;;;;1.95;1.85;;;22.60;64.00;;;;;;6166866;28;88857;-63
2022/03/16 12:02:56;;;;;;;2.30;2.10;;;22.60;64.10;;;;;;6178102;28;89090;-63
2022/03/16 12:06:01;;;;;;;2.30;2.10;;;22.60;64.00;;;;;;6178126;28;88337;-63
2022/03/16 12:09:05;;;;;;;2.22;2.03;;;22.60;64.00;;;;;;6178437;28;89341;-63
2022/03/16 12:15:37;;;;;;;2.25;2.05;;;22.70;64.20;;;;;;6176267;28;88304;-63
2022/03/16 12:18:41;;;;;;;1.92;1.77;;;22.70;64.20;;;;;;6178912;28;89012;-63
2022/03/16 12:21:46;;;;;;;2.15;1.95;;;22.60;64.20;;;;;;6179184;28;89148;-64
2022/03/16 12:31:31;;;;;;;2.25;2.05;;;22.70;64.20;;;;;;6182659;28;87196;-63
2022/03/16 12:34:34;;;;;;;2.20;2.00;;;22.70;64.30;;;;;;6180701;28;89164;-63
2022/03/16 12:37:49;;;;;;;2.20;2.00;;;22.70;64.30;;;;;;6176949;28;88384;-63
2022/03/16 12:44:12;;;;;;;2.40;2.10;;;22.60;64.20;;;;;;6178691;28;88255;-63
2022/03/16 12:47:22;;;;;;;2.38;2.17;;;22.70;64.40;;;;;;6177853;28;89916;-63
2022/03/16 12:50:28;;;;;;;2.25;2.05;;;22.70;64.40;;;;;;6177294;28;89277;-63
2022/03/16 12:53:44;;;;;;;1.90;1.80;;;22.70;64.40;;;;;;6181470;28;89270;-63
2022/03/16 12:56:50;;;;;;;2.60;2.40;;;22.70;64.40;;;;;;6163571;28;89123;-63
2022/03/16 12:59:55;;;;;;;2.38;2.17;;;22.70;64.40;;;;;;6179668;28;87984;-63
2022/03/16 13:03:13;;;;;;;2.50;2.30;;;22.70;64.40;;;;;;6185911;28;88210;-63
2022/03/16 13:06:18;;;;;;;2.40;2.20;;;22.70;64.40;;;;;;6185794;28;89106;-63
2022/03/16 13:09:21;;;;;;;2.50;2.30;;;22.70;64.40;;;;;;6186230;28;88373;-63
2022/03/16 13:12:26;;;;;;;2.80;2.20;;;22.70;64.40;;;;;;6185881;28;89094;-63
2022/03/16 13:15:28;;;;;;;2.88;2.20;;;22.70;64.40;;;;;;6185947;28;89077;-63
2022/03/16 13:18:31;;;;;;;2.45;2.25;;;22.70;64.40;;;;;;6184141;28;90079;-63
2022/03/16 13:21:35;;;;;;;2.45;2.25;;;22.70;64.40;;;;;;6185278;28;89064;-63
2022/03/16 13:24:38;;;;;;;2.67;2.47;;;22.70;64.40;;;;;;6186220;28;88011;-63
2022/03/16 13:27:42;;;;;;;2.95;2.47;;;22.70;64.50;;;;;;6184107;28;88997;-63
2022/03/16 13:30:53;;;;;;;2.80;2.50;;;22.70;64.40;;;;;;6182585;28;89269;-63
2022/03/16 13:33:59;;;;;;;2.72;2.50;;;22.70;64.40;;;;;;6180176;28;89277;-63
2022/03/16 13:37:02;;;;;;;2.50;2.30;;;22.70;64.40;;;;;;6185793;28;89078;-63
2022/03/16 13:40:07;;;;;;;2.17;2.08;;;22.70;64.50;;;;;;6184790;28;90405;-63
2022/03/16 13:43:12;;;;;;;2.55;2.35;;;22.70;64.50;;;;;;6181959;28;89261;-63
2022/03/16 13:46:15;;;;;;;2.70;2.50;;;22.70;64.50;;;;;;6185445;28;89407;-63
2022/03/16 13:49:18;;;;;;;2.38;2.17;;;22.70;64.50;;;;;;6184343;28;90045;-63
2022/03/16 13:52:22;;;;;;;2.88;2.30;;;22.70;64.50;;;;;;6185181;28;89188;-63
2022/03/16 13:55:24;;;;;;;2.47;2.30;;;22.70;64.50;;;;;;6169571;28;88289;-64
2022/03/16 13:58:27;;;;;;;3.72;2.47;;;22.70;64.50;;;;;;6162993;28;88015;-66
2022/03/16 14:01:30;;;;;;;2.85;2.65;;;22.70;64.50;;;;;;6183683;28;88003;-63
2022/03/16 14:04:37;;;;;;;4.47;2.50;;;22.70;64.70;;;;;;6180747;28;89040;-61
2022/03/16 14:07:41;;;;;;;2.70;2.50;;;22.70;65.00;;;;;;6179904;28;88045;-63
2022/03/16 14:10:43;;;;;;;3.40;2.72;;;22.80;65.50;;;;;;6181385;28;88619;-63
2022/03/16 14:13:47;;;;;;;5.10;2.90;;;22.70;65.40;;;;;;6179843;28;89151;-63
2022/03/16 14:16:49;;;;;;;163.10;35.08;;;22.70;65.20;;;;;;6179939;28;89351;-63
2022/03/16 14:19:53;;;;;;;40.13;14.98;;;22.80;67.20;;;;;;6181416;28;88999;-63
2022/03/16 14:22:55;;;;;;;18.33;10.10;;;22.80;70.00;;;;;;6183577;28;88069;-63
2022/03/16 14:26:01;;;;;;;14.95;9.85;;;22.70;67.30;;;;;;6182098;28;89152;-64
2022/03/16 14:29:05;;;;;;;14.98;9.40;;;22.70;65.20;;;;;;6185033;28;89206;-63
2022/03/16 14:32:07;;;;;;;10.93;8.70;;;22.70;66.70;;;;;;6182772;28;89151;-64
2022/03/16 14:35:10;;;;;;;10.70;8.02;;;22.70;67.40;;;;;;6185354;28;89085;-64
2022/03/16 14:38:15;;;;;;;10.18;7.13;;;22.60;67.30;;;;;;6184608;28;88663;-64
2022/03/16 14:41:17;;;;;;;12.32;7.40;;;22.60;68.50;;;;;;6182092;28;88590;-64
2022/03/16 14:44:23;;;;;;;8.82;6.60;;;22.60;67.40;;;;;;6179723;28;89108;-64
2022/03/16 14:47:25;;;;;;;10.77;6.90;;;22.70;66.70;;;;;;6179753;28;87181;-63
2022/03/16 14:50:29;;;;;;;9.57;7.20;;;22.60;66.90;;;;;;6183256;28;89015;-64
2022/03/16 14:53:31;;;;;;;9.30;6.68;;;22.70;68.20;;;;;;6181617;28;89156;-64
2022/03/16 14:56:33;;;;;;;8.27;5.97;;;22.70;68.00;;;;;;6180903;28;89349;-64
2022/03/16 14:59:36;;;;;;;8.30;6.45;;;22.70;68.10;;;;;;6181763;28;88010;-65
2022/03/16 15:02:38;;;;;;;7.72;6.30;;;22.70;68.10;;;;;;6183904;28;87925;-64
2022/03/16 15:05:42;;;;;;;8.43;6.05;;;22.70;67.90;;;;;;6183820;28;89151;-64
2022/03/16 15:08:44;;;;;;;8.45;6.40;;;22.70;68.80;;;;;;6182212;28;89067;-64
2022/03/16 15:11:46;;;;;;;6.88;6.03;;;22.70;67.70;;;;;;6184760;28;88420;-64
2022/03/16 15:14:49;;;;;;;9.20;6.00;;;22.70;67.80;;;;;;6182033;28;89163;-64
2022/03/16 15:17:51;;;;;;;8.93;5.72;;;22.70;67.70;;;;;;6183026;28;89131;-64
2022/03/16 15:20:53;;;;;;;7.43;5.90;;;22.70;67.90;;;;;;6181435;28;90034;-64
2022/03/16 15:23:55;;;;;;;7.70;5.60;;;22.70;67.80;;;;;;6183832;28;89365;-64
2022/03/16 15:26:57;;;;;;;6.57;5.80;;;22.70;67.70;;;;;;6184060;28;89077;-64
2022/03/16 15:30:01;;;;;;;6.50;5.43;;;22.70;67.60;;;;;;6181767;28;89224;-63
2022/03/16 15:33:04;;;;;;;7.50;5.80;;;22.70;67.40;;;;;;6183096;28;89154;-64
2022/03/16 15:36:07;;;;;;;6.65;5.90;;;22.80;67.50;;;;;;6181099;28;89656;-64
2022/03/16 15:39:09;;;;;;;7.75;5.72;;;22.70;67.40;;;;;;6159158;28;89082;-64
2022/03/16 15:45:43;;;;;;;6.22;5.50;;;22.80;67.40;;;;;;6082539;28;88650;-64
2022/03/16 15:48:45;;;;;;;5.47;4.97;;;22.80;68.30;;;;;;6176980;28;89063;-64
2022/03/16 15:51:49;;;;;;;6.72;5.10;;;22.70;67.40;;;;;;6182737;28;90070;-64
2022/03/16 15:54:51;;;;;;;6.97;5.65;;;22.80;67.20;;;;;;6175485;28;89137;-64
2022/03/16 15:57:53;;;;;;;6.45;5.68;;;22.80;67.10;;;;;;6181015;28;89076;-64
2022/03/16 16:00:57;;;;;;;7.15;5.03;;;22.80;67.20;;;;;;6183026;28;89175;-64
2022/03/16 16:03:59;;;;;;;5.90;5.40;;;22.80;67.20;;;;;;6180882;28;89048;-64
2022/03/16 16:07:01;;;;;;;5.95;5.35;;;22.70;67.10;;;;;;6183277;28;89116;-64
2022/03/16 16:10:05;;;;;;;5.97;5.38;;;22.70;67.10;;;;;;6183435;28;89123;-64
2022/03/16 16:13:08;;;;;;;6.60;5.65;;;22.80;67.10;;;;;;6182041;28;87382;-64
2022/03/16 16:16:13;;;;;;;6.65;5.35;;;22.70;67.00;;;;;;6182758;28;87928;-64
2022/03/16 16:19:16;;;;;;;5.70;5.20;;;22.70;66.80;;;;;;6180595;28;89067;-64
2022/03/16 16:22:20;;;;;;;6.18;5.57;;;22.70;66.90;;;;;;6182399;28;90151;-64
2022/03/16 16:25:23;;;;;;;6.00;5.40;;;22.70;66.80;;;;;;6182261;28;89061;-63
2022/03/16 16:28:26;;;;;;;6.35;5.55;;;22.70;66.70;;;;;;6182487;28;89345;-63
2022/03/16 16:31:30;;;;;;;6.25;5.65;;;22.70;66.70;;;;;;6181471;28;89059;-64
2022/03/16 16:34:32;;;;;;;5.70;5.05;;;22.70;66.70;;;;;;6181378;28;88036;-64